Latest Weather Observations for Parkes Airport

IDN60801

Issued at 11:22 pm EST Tuesday 18 June 2024 (issued every 10 minutes, with the page automatically refreshed every 10 minutes)

About weather observations | Map of weather stations | Latest weather observations for NSW | Other Formats
Station Details ID: 065068 Name: PARKES AIRPORT AWS Lat: -33.13 Lon: 148.24 Height: 323.3 m
Data from the previous 72 hours. | See also: Recent months at Parkes Airport
Date/Time
EST
Temp
°C
App
Temp
°C
Dew
Point
°C
Rel
Hum
%
Delta-T
°C
Wind Press
QNH
hPa
Press
MSL
hPa
Rain since
9am
mm
Dir  Spd
km/h
Gust
km/h
Spd
kts
Gust
kts
18/11:00pm 1.6 -2.2 1.5 99 0.0 NNE 11 11 6 6 1018.8 1019.1 0.0
18/10:30pm 2.2 -1.2 2.1 99 0.0 NNE 9 11 5 6 1018.5 1018.8 0.0
18/10:00pm 2.6 -0.1 2.5 99 0.0 N 6 7 3 4 1018.6 1018.9 0.0
18/09:30pm 2.6 -1.1 2.5 99 0.0 ENE 11 15 6 8 1018.4 1018.7 0.0
18/09:00pm 2.9 -0.3 2.8 99 0.0 S 9 11 5 6 1018.6 1018.9 0.0
18/08:30pm 2.4 -0.9 2.3 99 0.0 S 9 13 5 7 1018.5 1018.8 0.0
18/08:00pm 2.7 -0.6 2.4 98 0.1 S 9 13 5 7 1018.4 1018.7 0.0
18/07:30pm 3.8 1.1 3.5 98 0.1 S 7 9 4 5 1018.5 1018.8 0.0
18/07:00pm 4.1 2.7 3.7 97 0.2 CALM 0 0 0 0 1018.0 1018.3 0.0
18/06:30pm 3.8 0.9 2.6 92 0.5 S 7 9 4 5 1017.8 1018.1 0.0
18/06:00pm 5.6 2.6 4.1 90 0.6 S 9 11 5 6 1017.6 1017.9 0.0
18/05:30pm 6.9 4.5 5.1 88 0.8 S 7 9 4 5 1017.5 1017.8 0.0
18/05:00pm 7.8 4.6 5.3 84 1.1 SSW 11 13 6 7 1017.4 1017.7 0.0
18/04:30pm 9.6 6.2 5.8 77 1.8 SSW 13 17 7 9 1017.3 1017.6 0.0
18/04:00pm 10.5 7.1 5.7 72 2.2 SSW 13 17 7 9 1017.1 1017.5 0.0
18/03:30pm 10.8 6.7 6.0 72 2.3 SSW 17 20 9 11 1016.8 1017.2 0.0
18/03:00pm 11.3 7.5 6.0 70 2.5 SW 15 20 8 11 1016.9 1017.3 0.0
18/02:30pm 11.2 7.3 5.5 68 2.7 SW 15 22 8 12 1016.9 1017.3 0.0
18/02:00pm 11.5 8.0 5.6 67 2.8 SSW 13 19 7 10 1017.0 1017.4 0.0
18/01:30pm 10.9 7.5 5.7 70 2.4 SW 13 17 7 9 1017.3 1017.6 0.0
18/01:00pm 10.9 8.3 6.3 73 2.2 SW 9 15 5 8 1017.5 1017.8 0.0
18/12:30pm 10.1 8.4 7.5 84 1.3 WSW 6 9 3 5 1018.1 1018.4 0.0
18/12:00pm 8.9 7.6 7.8 93 0.5 SW 4 11 2 6 1018.7 1019.0 0.0
18/11:30am 7.7 7.2 7.7 100 0.0 CALM 0 0 0 0 1019.4 1019.8 0.0
18/11:00am 5.9 3.8 5.8 99 0.0 WSW 6 9 3 5 1019.7 1020.1 0.0
18/10:50am 5.5 3.1 5.4 99 0.0 SW 7 9 4 5 1019.8 1020.2 0.0
18/10:30am 5.3 3.1 5.2 99 0.0 SW 6 9 3 5 1019.8 1020.2 0.0
18/10:00am 4.5 1.9 4.4 99 0.0 W 7 9 4 5 1020.0 1020.4 0.0
18/09:30am 4.1 2.0 4.0 99 0.0 E 4 9 2 5 1019.8 1020.2 0.0
18/09:00am 2.9 0.6 2.8 99 0.0 ENE 4 6 2 3 1019.4 1019.8 0.0
18/08:58am 2.8 0.1 2.7 99 0.0 ENE 6 7 3 4 1019.5 1019.9 0.0
18/08:47am 2.2 -0.2 2.1 99 0.0 ENE 4 6 2 3 1019.5 1019.9 0.0
18/08:30am 1.4 -1.7 1.3 99 0.0 ENE 7 9 4 5 1019.3 1019.6 0.0
18/08:24am 1.3 -1.6 1.2 99 0.0 E 6 11 3 6 1019.1 1019.4 0.0
18/08:17am 0.8 -1.1 0.7 99 0.0 CALM 0 0 0 0 1019.0 1019.3 0.0
18/08:03am 0.5 -1.8 0.4 99 0.0 NE 2 6 1 3 1019.1 1019.4 0.0
18/08:00am 0.7 -1.6 0.6 99 0.0 NE 2 6 1 3 1019.1 1019.4 0.0
18/07:48am 0.1 -3.2 0.0 99 0.0 NE 7 7 4 4 1018.8 1019.1 0.0
18/07:30am -1.0 -3.1 -1.1 99 0.0 CALM 0 0 0 0 1018.4 1018.7 0.0
18/07:00am -0.4 -2.5 -0.5 99 0.0 CALM 0 0 0 0 1018.5 1018.8 0.0
18/06:30am -0.8 -4.6 -0.9 99 0.0 E 9 11 5 6 1018.6 1018.9 0.0
18/06:00am 0.0 -2.8 -0.1 99 0.0 NE 4 7 2 4 1018.5 1018.8 0.0
18/05:30am 0.0 -4.1 -0.1 99 0.0 ENE 11 13 6 7 1018.2 1018.5 0.0
18/05:00am 0.1 -4.0 0.0 99 0.0 E 11 11 6 6 1018.0 1018.3 0.0
18/04:30am -0.2 -4.3 -0.3 99 0.0 ENE 11 13 6 7 1018.2 1018.5 0.0
18/04:00am 0.1 -3.6 0.0 99 0.0 ENE 9 11 5 6 1018.6 1018.9 0.0
18/03:30am 0.4 -3.2 0.3 99 0.0 NE 9 9 5 5 1018.8 1019.1 0.0
18/03:00am 1.1 -1.9 1.0 99 0.0 NE 6 7 3 4 1019.0 1019.3 0.0
18/02:30am 0.4 -2.7 0.3 99 0.0 ENE 6 7 3 4 1018.9 1019.2 0.0
18/02:00am 0.6 -2.6 0.5 99 0.0 NE 7 11 4 6 1018.8 1019.1 0.0
18/01:30am 1.2 -3.1 1.1 99 0.0 E 13 15 7 8 1018.8 1019.1 0.0
18/01:00am 0.9 -3.1 0.8 99 0.0 ENE 11 11 6 6 1019.0 1019.3 0.0
18/12:30am 0.5 -3.1 0.4 99 0.0 E 9 11 5 6 1019.0 1019.3 0.0
18/12:00am 1.7 -1.7 1.6 99 0.0 ENE 9 11 5 6 1019.4 1019.8 0.0
 
Date/Time
EST
Temp
°C
App
Temp
°C
Dew
Point
°C
Rel
Hum
%
Delta-T
°C
Wind Press
QNH
hPa
Press
MSL
hPa
Rain since
9am
mm
Dir  Spd
km/h
Gust
km/h
Spd
kts
Gust
kts
17/11:30pm 1.6 -1.9 1.5 99 0.0 ENE 9 13 5 7 1019.5 1019.9 0.0
17/11:00pm 1.8 -1.1 1.7 99 0.0 ENE 6 7 3 4 1019.6 1020.0 0.0
17/10:30pm 1.9 -0.9 1.8 99 0.0 ENE 6 7 3 4 1019.7 1020.1 0.0
17/10:00pm 2.2 -1.5 2.1 99 0.0 ENE 11 13 6 7 1019.6 1020.0 0.0
17/09:30pm 2.7 -1.3 2.6 99 0.0 ENE 13 13 7 7 1019.4 1019.8 0.0
17/09:00pm 3.3 -0.3 3.2 99 0.0 ENE 11 13 6 7 1019.5 1019.9 0.0
17/08:30pm 2.8 -0.5 2.4 97 0.2 E 9 11 5 6 1019.4 1019.8 0.0
17/08:00pm 3.1 0.2 2.5 96 0.2 SSW 7 9 4 5 1019.3 1019.6 0.0
17/07:30pm 3.3 0.4 2.4 94 0.4 SSW 7 9 4 5 1019.2 1019.5 0.0
17/07:00pm 4.1 2.6 2.9 92 0.5 CALM 0 0 0 0 1019.3 1019.6 0.0
17/06:30pm 5.1 3.7 3.6 90 0.6 CALM 0 0 0 0 1019.1 1019.4 0.0
17/06:00pm 6.8 4.4 4.5 85 1.0 SSW 6 6 3 3 1018.8 1019.1 0.0
17/05:30pm 7.2 4.3 4.7 84 1.1 SSW 9 9 5 5 1018.5 1018.8 0.0
17/05:00pm 8.5 4.8 4.5 76 1.8 SW 13 15 7 8 1018.2 1018.5 0.0
17/04:30pm 10.3 5.9 4.9 69 2.5 SW 17 22 9 12 1017.9 1018.2 0.0
17/04:00pm 10.9 6.1 4.4 64 3.0 SSW 19 24 10 13 1017.8 1018.1 0.0
17/03:30pm 11.2 6.8 4.7 64 3.0 SSW 17 22 9 12 1017.7 1018.0 0.0
17/03:00pm 11.3 6.9 4.5 63 3.1 SSW 17 24 9 13 1017.6 1017.9 0.0
17/02:30pm 11.5 6.7 4.7 63 3.1 SSW 19 24 10 13 1017.5 1017.8 0.0
17/02:00pm 11.5 7.1 4.9 64 3.1 SW 17 22 9 12 1017.5 1017.8 0.0
17/01:30pm 11.0 7.0 4.7 65 2.9 SW 15 20 8 11 1017.6 1017.9 0.0
17/01:00pm 10.5 6.8 4.2 65 2.9 SW 13 20 7 11 1017.8 1018.1 0.0
17/12:30pm 9.8 5.6 4.0 67 2.6 SW 15 22 8 12 1018.1 1018.4 0.0
17/12:00pm 9.5 5.9 4.9 73 2.1 SW 13 19 7 10 1018.5 1018.8 0.0
17/11:30am 8.3 5.3 4.3 76 1.8 SSW 9 15 5 8 1018.8 1019.1 0.0
17/11:00am 6.9 4.7 5.2 89 0.8 SSW 6 11 3 6 1019.2 1019.5 0.0
17/10:43am 6.7 5.9 6.6 99 0.0 CALM 0 6 0 3 1019.4 1019.8 0.0
17/10:30am 5.9 3.8 5.8 99 0.0 WNW 6 7 3 4 1019.5 1019.9 0.0
17/10:00am 3.7 1.2 3.6 99 0.0 W 6 7 3 4 1019.5 1019.9 0.0
17/09:37am 3.1 1.6 3.0 99 0.0 CALM 0 0 0 0 1019.5 1019.9 0.0
17/09:30am 3.0 1.5 2.9 99 0.0 CALM 0 0 0 0 1019.5 1019.9 0.0
17/09:00am 2.4 0.8 2.3 99 0.0 CALM 0 0 0 0 1019.3 1019.6 0.2
17/08:30am 1.1 -0.7 1.0 99 0.0 CALM 0 6 0 3 1019.1 1019.4 0.0
17/08:00am -0.1 -2.1 -0.2 99 0.0 CALM 0 0 0 0 1018.9 1019.2 0.0
17/07:49am -0.5 -2.6 -0.6 99 0.0 CALM 0 0 0 0 1018.9 1019.2 0.0
17/07:30am -0.4 -3.2 -0.5 99 0.0 WSW 4 7 2 4 1018.9 1019.2 0.0
17/07:22am -0.6 -3.4 -0.7 99 0.0 SSE 4 7 2 4 1018.8 1019.1 0.0
17/07:00am -0.9 -4.7 -1.0 99 0.0 SSE 9 11 5 6 1018.5 1018.8 0.0
17/06:30am -1.3 -4.8 -1.4 99 0.0 SSE 7 9 4 5 1018.4 1018.7 0.0
17/06:00am -0.5 -2.9 -0.6 99 0.0 SSE 2 7 1 4 1018.0 1018.3 0.0
17/05:30am -0.6 -4.8 -0.7 99 0.0 SSE 11 13 6 7 1017.7 1018.0 0.0
17/05:00am -0.6 -4.8 -0.7 99 0.0 SSE 11 13 6 7 1017.8 1018.1 0.0
17/04:30am 0.0 -3.3 -0.1 99 0.0 SSE 7 9 4 5 1017.6 1017.9 0.0
17/04:00am -0.3 -3.7 -0.4 99 0.0 SSE 7 11 4 6 1017.6 1017.9 0.0
17/03:30am 0.2 -3.1 0.1 99 0.0 SSE 7 9 4 5 1017.8 1018.1 0.0
17/03:00am 0.8 -2.4 0.7 99 0.0 SSE 7 9 4 5 1017.8 1018.1 0.0
17/02:30am 0.9 -2.3 0.8 99 0.0 SSE 7 9 4 5 1018.1 1018.4 0.0
17/02:00am 2.1 -1.3 2.0 99 0.0 SSW 9 9 5 5 1018.0 1018.3 0.0
17/01:30am 0.8 -1.9 0.5 98 0.1 SSE 4 11 2 6 1018.1 1018.4 0.0
17/01:00am 0.9 -1.0 0.6 98 0.1 CALM 0 0 0 0 1017.9 1018.2 0.0
17/12:30am 1.7 -0.1 1.3 97 0.2 CALM 0 0 0 0 1017.9 1018.2 0.0
17/12:00am 2.8 1.2 2.5 98 0.1 CALM 0 4 0 2 1017.9 1018.2 0.0
 
Date/Time
EST
Temp
°C
App
Temp
°C
Dew
Point
°C
Rel
Hum
%
Delta-T
°C
Wind Press
QNH
hPa
Press
MSL
hPa
Rain since
9am
mm
Dir  Spd
km/h
Gust
km/h
Spd
kts
Gust
kts
16/11:30pm 2.3 -1.1 1.7 96 0.2 SSW 9 11 5 6 1018.3 1018.6 0.0
16/11:00pm 3.3 -0.4 2.6 95 0.3 SSW 11 13 6 7 1018.5 1018.8 0.0
16/10:30pm 3.9 0.7 3.2 95 0.3 SW 9 11 5 6 1018.6 1018.9 0.0
16/10:00pm 4.4 1.3 3.7 95 0.3 SSW 9 11 5 6 1018.7 1019.0 0.0
16/09:30pm 5.0 1.9 3.8 92 0.5 SSW 9 11 5 6 1018.7 1019.0 0.0
16/09:00pm 5.4 2.0 4.1 91 0.6 SSW 11 13 6 7 1018.8 1019.1 0.0
16/08:30pm 5.7 2.3 4.0 89 0.7 SSW 11 13 6 7 1018.8 1019.1 0.0
16/08:00pm 5.9 2.1 4.1 88 0.8 SW 13 17 7 9 1018.6 1018.9 0.0
16/07:30pm 6.9 2.4 4.0 82 1.3 SW 17 20 9 11 1018.5 1018.8 0.0
16/07:00pm 7.6 3.2 4.6 81 1.3 SW 17 19 9 10 1018.2 1018.5 0.0
16/06:30pm 7.9 3.9 4.8 81 1.4 SW 15 20 8 11 1017.8 1018.1 0.0
16/06:00pm 7.2 4.1 3.8 79 1.5 SW 9 13 5 7 1017.5 1017.8 0.0
16/05:30pm 8.8 5.2 5.0 77 1.7 SW 13 15 7 8 1017.1 1017.5 0.0
16/05:00pm 10.4 5.4 4.5 67 2.7 SW 20 26 11 14 1016.8 1017.2 0.0
16/04:30pm 11.6 6.8 4.8 63 3.2 SW 19 24 10 13 1016.7 1017.1 0.0
16/04:00pm 11.9 6.1 4.2 59 3.5 SW 24 30 13 16 1016.6 1016.9 0.0
16/03:30pm 11.4 6.4 4.8 64 3.1 SSW 20 28 11 15 1016.6 1016.9 0.0
16/03:00pm 12.1 6.2 4.1 58 3.7 SW 24 32 13 17 1016.5 1016.8 0.0
16/02:30pm 13.1 7.3 4.3 55 4.1 SW 24 30 13 16 1016.5 1016.8 0.0
16/02:00pm 12.7 7.4 4.9 59 3.7 SW 22 28 12 15 1016.6 1016.9 0.0
16/01:30pm 12.1 7.3 5.5 64 3.1 SW 20 28 11 15 1016.8 1017.2 0.0
16/01:00pm 12.4 8.6 7.7 73 2.3 WSW 17 20 9 11 1016.9 1017.3 0.0
16/12:30pm 11.6 7.8 7.7 77 1.9 SW 17 20 9 11 1017.4 1017.7 0.0
16/12:00pm 10.7 6.9 7.6 81 1.5 SW 17 22 9 12 1017.9 1018.2 0.0
16/11:30am 10.2 7.1 7.1 81 1.5 SW 13 17 7 9 1018.2 1018.5 0.0
16/11:08am 9.9 7.8 8.2 89 0.8 SW 9 15 5 8 1018.4 1018.7 0.0
16/11:00am 9.4 7.2 7.8 90 0.8 SW 9 13 5 7 1018.4 1018.7 0.0
16/10:30am 7.7 5.4 7.6 99 0.0 SSW 9 11 5 6 1018.8 1019.1 0.0
16/10:00am 7.3 4.9 7.2 99 0.0 WSW 9 11 5 6 1018.9 1019.2 0.0
16/09:40am 8.8 7.0 8.0 95 0.4 SW 7 13 4 7 1018.9 1019.2 0.0
16/09:38am 8.4 6.6 7.3 93 0.5 WSW 6 11 3 6 1018.9 1019.2 0.0
16/09:30am 8.6 8.0 7.4 92 0.6 CALM 0 6 0 3 1018.8 1019.1 0.0
16/09:00am 8.0 7.1 7.6 97 0.2 NNE 2 6 1 3 1018.5 1018.8 2.4
16/08:30am 6.3 4.1 6.2 99 0.0 NNE 7 9 4 5 1018.3 1018.6 2.4
16/08:00am 4.4 2.4 4.3 99 0.0 W 4 9 2 5 1018.2 1018.5 2.4
16/07:46am 3.8 2.4 3.7 99 0.0 CALM 0 0 0 0 1018.1 1018.4 2.4
16/07:42am 3.5 2.1 3.4 99 0.0 CALM 0 0 0 0 1018.1 1018.4 2.4
16/07:30am 3.4 2.0 3.3 99 0.0 CALM 0 0 0 0 1018.0 1018.3 2.4
16/07:00am 3.6 2.2 3.5 99 0.0 CALM 0 0 0 0 1017.8 1018.1 2.4
16/06:30am 3.3 1.5 3.2 99 0.0 SW 2 7 1 4 1017.5 1017.8 2.4
16/06:00am 4.0 2.7 3.9 99 0.0 CALM 0 0 0 0 1017.3 1017.6 2.4
16/05:30am 4.5 1.9 4.4 99 0.0 SW 7 9 4 5 1017.1 1017.5 2.4
16/05:00am 5.7 3.6 5.6 99 0.0 WSW 6 7 3 4 1016.9 1017.3 2.4
16/04:30am 6.5 4.3 6.4 99 0.0 WSW 7 9 4 5 1016.9 1017.3 2.4
16/04:18am 7.1 5.3 7.0 99 0.0 WSW 6 9 3 5 1017.0 1017.4 2.4
16/04:03am 7.4 5.4 7.3 99 0.0 WSW 7 9 4 5 1017.0 1017.4 2.4
16/04:00am 7.3 5.3 7.2 99 0.0 WSW 7 7 4 4 1016.9 1017.3 2.4
16/03:30am 7.5 5.6 7.4 99 0.0 SSW 7 9 4 5 1017.1 1017.5 2.4
16/03:00am 7.4 4.7 7.3 99 0.0 SSW 11 13 6 7 1017.3 1017.6 2.4
16/02:30am 7.5 4.8 7.4 99 0.0 S 11 15 6 8 1017.0 1017.4 2.4
16/02:00am 8.4 8.0 8.1 98 0.1 CALM 0 0 0 0 1017.0 1017.4 2.2
16/01:30am 8.4 7.9 8.0 97 0.2 CALM 0 0 0 0 1017.1 1017.5 2.2
16/01:00am 8.7 7.1 7.9 95 0.4 S 6 7 3 4 1017.3 1017.6 2.2
16/12:30am 8.9 7.1 8.0 94 0.4 E 7 7 4 4 1017.4 1017.7 2.2
16/12:00am 9.1 6.6 8.0 93 0.5 ESE 11 13 6 7 1017.4 1017.7 2.2
 
Date/Time
EST
Temp
°C
App
Temp
°C
Dew
Point
°C
Rel
Hum
%
Delta-T
°C
Wind Press
QNH
hPa
Press
MSL
hPa
Rain since
9am
mm
Dir  Spd
km/h
Gust
km/h
Spd
kts
Gust
kts
15/11:30pm 9.2 5.9 8.0 92 0.6 ESE 15 19 8 10 1017.5 1017.8 2.2

Other formats

Comma delimited format used in spreadsheet applications
http://www.bom.gov.au/fwo/IDN60801/IDN60801.95717.axf

JavaScript Object Notation format (JSON) in row-major order
http://www.bom.gov.au/fwo/IDN60801/IDN60801.95717.json

Data quality

Most of these data are generated automatically and are frequently updated. Quality checks on data are not normally performed. It is possible for incorrect values to appear. Refer to information at About Latest Weather Observations and please check the disclaimer before using these data.